Time;durP1;ratioP1;P1;durP2;ratioP2;P2;SDS_P1;SDS_P2;PMS_P1;PMS_P2;Temp;Humidity;BMP_temperature;BMP_pressure;BME280_temperature;BME280_humidity;BME280_pressure;Samples;Min_cycle;Max_cycle;Signal;HPM_P1;HPM_P2
2021/09/13 00:00:40;;;;;;;5.63;5.13;;;;;;;;;;2088037;28;20189;-53
2021/09/13 00:01:42;;;;;;;6.75;5.38;;;;;;;;;;2082689;28;20180;-50
2021/09/13 00:02:43;;;;;;;9.43;5.47;;;;;;;;;;2087600;28;20222;-50
2021/09/13 00:03:43;;;;;;;7.43;5.63;;;;;;;;;;2089879;28;20200;-51
2021/09/13 00:04:44;;;;;;;6.00;5.35;;;;;;;;;;2089784;28;20176;-50
2021/09/13 00:05:46;;;;;;;7.57;5.32;;;;;;;;;;2088504;28;20167;-51
2021/09/13 00:06:47;;;;;;;7.00;5.00;;;;;;;;;;2088158;28;20176;-54
2021/09/13 00:07:47;;;;;;;5.50;4.97;;;;;;;;;;2089530;28;20194;-50
2021/09/13 00:08:47;;;;;;;5.93;5.43;;;;;;;;;;2083590;28;20172;-51
2021/09/13 00:09:47;;;;;;;5.95;5.40;;;;;;;;;;2083980;28;20215;-50
2021/09/13 00:10:48;;;;;;;6.05;4.95;;;;;;;;;;2089678;28;20166;-51
2021/09/13 00:11:49;;;;;;;7.30;5.75;;;;;;;;;;2090250;28;20171;-55
2021/09/13 00:12:50;;;;;;;6.75;5.68;;;;;;;;;;2083226;28;20179;-50
2021/09/13 00:13:50;;;;;;;6.10;5.60;;;;;;;;;;2081762;28;20266;-52
2021/09/13 00:14:51;;;;;;;5.63;5.10;;;;;;;;;;2084329;28;20225;-58
2021/09/13 00:15:52;;;;;;;6.05;5.55;;;;;;;;;;2090377;28;20156;-50
2021/09/13 00:16:53;;;;;;;5.88;5.38;;;;;;;;;;2090371;28;20250;-52
2021/09/13 00:17:55;;;;;;;5.70;5.20;;;;;;;;;;2089123;28;20176;-56
2021/09/13 00:18:56;;;;;;;5.65;5.15;;;;;;;;;;2086418;28;20174;-51
2021/09/13 00:19:57;;;;;;;7.40;5.63;;;;;;;;;;2091464;28;20171;-53
2021/09/13 00:20:58;;;;;;;6.38;5.15;;;;;;;;;;2087759;28;20160;-50
2021/09/13 00:21:58;;;;;;;7.75;5.53;;;;;;;;;;2083987;28;20179;-51
2021/09/13 00:22:58;;;;;;;5.93;5.35;;;;;;;;;;2083311;28;20541;-51
2021/09/13 00:23:59;;;;;;;6.93;5.45;;;;;;;;;;2089249;28;20191;-50
2021/09/13 00:25:00;;;;;;;6.82;5.35;;;;;;;;;;2090125;28;20226;-52
2021/09/13 00:26:00;;;;;;;8.52;5.43;;;;;;;;;;2083524;28;20334;-52
2021/09/13 00:27:00;;;;;;;8.00;5.13;;;;;;;;;;2089944;28;20249;-50
2021/09/13 00:28:01;;;;;;;5.65;5.13;;;;;;;;;;2082029;28;20263;-51
2021/09/13 00:29:01;;;;;;;6.50;5.35;;;;;;;;;;2086821;28;20183;-51
2021/09/13 00:30:01;;;;;;;7.07;5.00;;;;;;;;;;2082960;28;20179;-53
2021/09/13 00:31:02;;;;;;;8.68;4.90;;;;;;;;;;2079061;28;20223;-55
2021/09/13 00:32:02;;;;;;;6.95;5.18;;;;;;;;;;2087798;28;20172;-53
2021/09/13 00:33:03;;;;;;;6.35;5.30;;;;;;;;;;2091222;28;20171;-51
2021/09/13 00:34:03;;;;;;;6.18;5.60;;;;;;;;;;2081919;28;20192;-54
2021/09/13 00:35:05;;;;;;;6.35;5.32;;;;;;;;;;2082661;28;20251;-51
2021/09/13 00:36:07;;;;;;;8.63;5.38;;;;;;;;;;2085384;28;20191;-54
2021/09/13 00:37:07;;;;;;;6.40;5.55;;;;;;;;;;2082003;28;20562;-52
2021/09/13 00:38:08;;;;;;;6.32;5.35;;;;;;;;;;2089780;28;20296;-54
2021/09/13 00:39:09;;;;;;;5.78;4.85;;;;;;;;;;2090387;28;20663;-51
2021/09/13 00:40:11;;;;;;;6.30;5.07;;;;;;;;;;2087466;28;20593;-52
2021/09/13 00:41:12;;;;;;;9.98;5.65;;;;;;;;;;2090143;28;20187;-56
2021/09/13 00:42:12;;;;;;;6.15;5.10;;;;;;;;;;2081994;28;20176;-55
2021/09/13 00:43:13;;;;;;;7.13;5.35;;;;;;;;;;2090507;28;20238;-52
2021/09/13 00:44:14;;;;;;;5.43;4.93;;;;;;;;;;2090845;28;20204;-52
2021/09/13 00:45:14;;;;;;;6.20;5.20;;;;;;;;;;2089553;28;20167;-58
2021/09/13 00:46:15;;;;;;;5.13;4.72;;;;;;;;;;2088715;28;20175;-54
2021/09/13 00:47:15;;;;;;;7.25;5.57;;;;;;;;;;2089881;28;20172;-53
2021/09/13 00:48:15;;;;;;;6.53;5.60;;;;;;;;;;2081158;28;20248;-55
2021/09/13 00:49:16;;;;;;;6.97;4.93;;;;;;;;;;2089569;28;20172;-54
2021/09/13 00:50:16;;;;;;;9.15;5.13;;;;;;;;;;2090619;28;20175;-52
2021/09/13 00:51:16;;;;;;;5.90;5.07;;;;;;;;;;2089556;28;20206;-52
2021/09/13 00:52:17;;;;;;;8.93;5.32;;;;;;;;;;2088670;28;20259;-55
2021/09/13 00:53:17;;;;;;;7.18;5.15;;;;;;;;;;2081144;28;20179;-53
2021/09/13 00:54:18;;;;;;;6.90;5.32;;;;;;;;;;2087885;28;20207;-51
2021/09/13 00:55:18;;;;;;;10.15;5.45;;;;;;;;;;2081942;28;20179;-54
2021/09/13 00:56:19;;;;;;;7.93;5.85;;;;;;;;;;2081725;28;20243;-57
2021/09/13 00:57:19;;;;;;;5.45;4.95;;;;;;;;;;2081843;28;20180;-54
2021/09/13 00:58:21;;;;;;;5.85;4.68;;;;;;;;;;2081593;28;20180;-54
2021/09/13 00:59:22;;;;;;;8.13;5.18;;;;;;;;;;2081895;28;20584;-53
2021/09/13 01:00:23;;;;;;;5.97;5.40;;;;;;;;;;2082024;28;20235;-52
2021/09/13 01:01:25;;;;;;;6.00;4.85;;;;;;;;;;2082150;28;20173;-52
2021/09/13 01:02:25;;;;;;;6.70;5.13;;;;;;;;;;2089705;28;20176;-52
2021/09/13 01:03:25;;;;;;;7.82;5.25;;;;;;;;;;2089073;28;20219;-57
2021/09/13 01:04:27;;;;;;;6.20;4.82;;;;;;;;;;2089692;28;20183;-56
2021/09/13 01:05:27;;;;;;;6.38;4.70;;;;;;;;;;2089887;28;20221;-53
2021/09/13 01:06:27;;;;;;;6.50;4.80;;;;;;;;;;2090161;28;20744;-54
2021/09/13 01:07:30;;;;;;;5.82;5.18;;;;;;;;;;2084814;28;20232;-50
2021/09/13 01:08:30;;;;;;;6.25;5.53;;;;;;;;;;2083894;28;20168;-55
2021/09/13 01:09:30;;;;;;;5.50;5.00;;;;;;;;;;2073571;28;20188;-55
2021/09/13 01:10:31;;;;;;;8.10;5.38;;;;;;;;;;2075755;28;20165;-53
2021/09/13 01:11:31;;;;;;;6.55;5.30;;;;;;;;;;2089402;28;20164;-53
2021/09/13 01:12:32;;;;;;;6.00;4.88;;;;;;;;;;2087979;28;20163;-51
2021/09/13 01:13:34;;;;;;;6.95;4.88;;;;;;;;;;2089498;28;20547;-56
2021/09/13 01:14:38;;;;;;;5.80;4.78;;;;;;;;;;2081059;28;20176;-55
2021/09/13 01:15:39;;;;;;;11.25;5.45;;;;;;;;;;2088826;28;20170;-54
2021/09/13 01:16:39;;;;;;;8.57;5.72;;;;;;;;;;2081853;28;20176;-52
2021/09/13 01:17:40;;;;;;;8.48;5.13;;;;;;;;;;2073427;28;20215;-51
2021/09/13 01:18:40;;;;;;;7.10;5.68;;;;;;;;;;2073144;28;20716;-56
2021/09/13 01:19:42;;;;;;;8.20;5.93;;;;;;;;;;2079909;28;20183;-55
2021/09/13 01:20:44;;;;;;;6.40;5.82;;;;;;;;;;2080769;28;20748;-52
2021/09/13 01:21:45;;;;;;;6.47;5.88;;;;;;;;;;2081670;28;20563;-51
2021/09/13 01:22:47;;;;;;;9.05;5.68;;;;;;;;;;2088810;28;20259;-51
2021/09/13 01:23:47;;;;;;;8.57;6.07;;;;;;;;;;2076491;28;20211;-55
2021/09/13 01:24:48;;;;;;;7.70;5.45;;;;;;;;;;2080930;28;20299;-50
2021/09/13 01:25:48;;;;;;;6.40;5.40;;;;;;;;;;2089805;28;20202;-51
2021/09/13 01:27:04;;;;;;;5.70;4.68;;;;;;;;;;2089458;28;20201;-52
2021/09/13 01:28:05;;;;;;;6.03;5.18;;;;;;;;;;2080594;28;20271;-50
2021/09/13 01:29:06;;;;;;;6.20;5.60;;;;;;;;;;2080053;28;20259;-51
2021/09/13 01:30:09;;;;;;;6.50;5.43;;;;;;;;;;2078182;28;20416;-52
2021/09/13 01:31:10;;;;;;;7.25;5.22;;;;;;;;;;2080696;28;20200;-55
2021/09/13 01:32:15;;;;;;;6.22;4.90;;;;;;;;;;2081519;28;20259;-51
2021/09/13 01:33:28;;;;;;;6.13;5.25;;;;;;;;;;2081475;28;20230;-52
2021/09/13 01:34:29;;;;;;;6.20;5.60;;;;;;;;;;2083304;28;20168;-55
2021/09/13 01:35:31;;;;;;;6.18;5.13;;;;;;;;;;2082369;28;20264;-53
2021/09/13 01:36:31;;;;;;;6.63;5.97;;;;;;;;;;2083603;28;20168;-53
2021/09/13 01:37:37;;;;;;;7.68;5.70;;;;;;;;;;2089060;28;20208;-49
2021/09/13 01:38:46;;;;;;;8.85;5.63;;;;;;;;;;2081567;28;20222;-55
2021/09/13 01:39:46;;;;;;;7.90;5.68;;;;;;;;;;2081308;28;20180;-51
2021/09/13 01:40:49;;;;;;;9.38;5.80;;;;;;;;;;2079261;28;20168;-51
2021/09/13 01:41:50;;;;;;;6.75;6.15;;;;;;;;;;2073523;28;20267;-52
2021/09/13 01:42:59;;;;;;;10.60;6.28;;;;;;;;;;2074109;28;20185;-50
2021/09/13 01:44:00;;;;;;;10.10;6.40;;;;;;;;;;2075006;28;20197;-52
2021/09/13 01:45:02;;;;;;;11.05;7.38;;;;;;;;;;2073544;28;20177;-55
2021/09/13 01:46:07;;;;;;;7.28;6.57;;;;;;;;;;2081570;28;20173;-53
2021/09/13 01:47:09;;;;;;;7.22;6.53;;;;;;;;;;2088534;28;20670;-50
2021/09/13 01:48:11;;;;;;;8.20;7.03;;;;;;;;;;2088859;28;20167;-50
2021/09/13 01:49:12;;;;;;;9.68;6.75;;;;;;;;;;2080697;28;20784;-51
2021/09/13 01:50:12;;;;;;;9.70;7.50;;;;;;;;;;2080919;28;20215;-51
2021/09/13 01:51:12;;;;;;;8.05;6.28;;;;;;;;;;2086998;28;20180;-55
2021/09/13 01:52:13;;;;;;;8.20;7.20;;;;;;;;;;2088053;28;20182;-57
2021/09/13 01:53:14;;;;;;;10.73;7.38;;;;;;;;;;2079880;28;20179;-51
2021/09/13 01:54:14;;;;;;;8.55;6.28;;;;;;;;;;2080081;28;20673;-52
2021/09/13 01:55:16;;;;;;;7.93;7.13;;;;;;;;;;2078944;28;20237;-49
2021/09/13 01:56:17;;;;;;;8.23;7.43;;;;;;;;;;2081544;28;20173;-55
2021/09/13 01:57:17;;;;;;;10.27;7.35;;;;;;;;;;2084946;28;20247;-52
2021/09/13 01:58:18;;;;;;;9.73;7.00;;;;;;;;;;2083155;28;20177;-51
2021/09/13 01:59:19;;;;;;;8.60;7.55;;;;;;;;;;2077534;28;20196;-54
2021/09/13 02:00:20;;;;;;;9.25;6.63;;;;;;;;;;2081596;28;20171;-53
2021/09/13 02:01:22;;;;;;;8.25;6.78;;;;;;;;;;2085049;28;20645;-57
2021/09/13 02:02:22;;;;;;;9.48;6.88;;;;;;;;;;2081827;28;20201;-53
2021/09/13 02:03:23;;;;;;;12.65;7.50;;;;;;;;;;2074267;28;20176;-52
2021/09/13 02:04:26;;;;;;;8.20;7.40;;;;;;;;;;2081643;28;20176;-53
2021/09/13 02:05:26;;;;;;;8.95;7.72;;;;;;;;;;2073182;28;20165;-53
2021/09/13 02:06:31;;;;;;;9.82;7.50;;;;;;;;;;2072453;28;20256;-55
2021/09/13 02:07:31;;;;;;;7.82;7.03;;;;;;;;;;2072819;28;20205;-52
2021/09/13 02:08:32;;;;;;;15.20;8.32;;;;;;;;;;2080920;28;20175;-55
2021/09/13 02:09:34;;;;;;;9.27;8.48;;;;;;;;;;2073521;28;20600;-54
2021/09/13 02:10:35;;;;;;;13.63;8.77;;;;;;;;;;2073465;28;20248;-52
2021/09/13 02:11:35;;;;;;;8.70;7.88;;;;;;;;;;2073812;28;20180;-50
2021/09/13 02:12:36;;;;;;;11.70;8.70;;;;;;;;;;2081071;28;20704;-52
2021/09/13 02:13:38;;;;;;;10.05;9.00;;;;;;;;;;2081321;28;20164;-54
2021/09/13 02:14:38;;;;;;;9.65;8.63;;;;;;;;;;2086198;28;20212;-55
2021/09/13 02:15:39;;;;;;;14.75;9.43;;;;;;;;;;2089461;28;20309;-54
2021/09/13 02:16:39;;;;;;;9.30;8.38;;;;;;;;;;2080494;28;20271;-51
2021/09/13 02:17:44;;;;;;;11.32;8.80;;;;;;;;;;2077006;28;20664;-54
2021/09/13 02:18:46;;;;;;;15.30;8.82;;;;;;;;;;2081110;28;20171;-53
2021/09/13 02:19:48;;;;;;;13.30;9.18;;;;;;;;;;2076593;28;20721;-51
2021/09/13 02:20:48;;;;;;;9.38;8.30;;;;;;;;;;2081332;28;20175;-54
2021/09/13 02:21:49;;;;;;;10.98;9.32;;;;;;;;;;2089769;28;20547;-53
2021/09/13 02:22:49;;;;;;;11.93;9.38;;;;;;;;;;2082066;28;20176;-52
2021/09/13 02:23:51;;;;;;;12.48;9.35;;;;;;;;;;2084996;28;20645;-51
2021/09/13 02:24:51;;;;;;;10.88;9.70;;;;;;;;;;2081259;28;20226;-52
2021/09/13 02:25:51;;;;;;;9.95;8.68;;;;;;;;;;2081327;28;20250;-51
2021/09/13 02:26:52;;;;;;;12.85;8.48;;;;;;;;;;2080565;28;20180;-53
2021/09/13 02:27:52;;;;;;;11.25;8.50;;;;;;;;;;2076188;28;20206;-62
2021/09/13 02:28:53;;;;;;;9.18;8.32;;;;;;;;;;2080653;28;20188;-56
2021/09/13 02:29:53;;;;;;;9.75;8.00;;;;;;;;;;2089161;28;20178;-57
2021/09/13 02:30:53;;;;;;;10.07;8.40;;;;;;;;;;2088743;28;20210;-53
2021/09/13 02:31:53;;;;;;;10.88;8.40;;;;;;;;;;2088521;28;20170;-54
2021/09/13 02:32:54;;;;;;;10.68;8.70;;;;;;;;;;2083313;28;20180;-51
2021/09/13 02:33:54;;;;;;;11.38;8.80;;;;;;;;;;2081265;28;20187;-51
2021/09/13 02:34:55;;;;;;;9.15;8.18;;;;;;;;;;2081090;28;20180;-52
2021/09/13 02:35:57;;;;;;;8.63;7.72;;;;;;;;;;2076659;28;20203;-51
2021/09/13 02:36:57;;;;;;;12.35;8.20;;;;;;;;;;2075690;28;20552;-55
2021/09/13 02:37:57;;;;;;;11.07;7.65;;;;;;;;;;2081005;28;20168;-51
2021/09/13 02:38:59;;;;;;;9.60;8.02;;;;;;;;;;2088563;28;20577;-53
2021/09/13 02:39:59;;;;;;;12.77;8.00;;;;;;;;;;2080522;28;20255;-54
2021/09/13 02:41:01;;;;;;;9.13;7.40;;;;;;;;;;2089462;28;20180;-54
2021/09/13 02:42:04;;;;;;;11.50;7.50;;;;;;;;;;2089744;28;20258;-51
2021/09/13 02:43:04;;;;;;;8.55;7.50;;;;;;;;;;2089412;28;20167;-53
2021/09/13 02:44:05;;;;;;;11.15;8.05;;;;;;;;;;2089474;28;20273;-54
2021/09/13 02:45:06;;;;;;;10.90;8.38;;;;;;;;;;2090027;28;20168;-53
2021/09/13 02:46:07;;;;;;;8.70;7.40;;;;;;;;;;2088475;28;20170;-51
2021/09/13 02:47:07;;;;;;;9.23;7.28;;;;;;;;;;2080347;28;20271;-54
2021/09/13 02:48:07;;;;;;;11.38;8.10;;;;;;;;;;2080678;28;20192;-52
2021/09/13 02:49:08;;;;;;;9.52;7.30;;;;;;;;;;2089349;28;20171;-57
2021/09/13 02:50:09;;;;;;;8.80;7.32;;;;;;;;;;2071327;28;20185;-56
2021/09/13 02:51:09;;;;;;;11.63;8.20;;;;;;;;;;2081073;28;20251;-51
2021/09/13 02:52:10;;;;;;;8.57;7.50;;;;;;;;;;2085672;28;20179;-54
2021/09/13 02:53:10;;;;;;;9.80;7.75;;;;;;;;;;2088828;28;20186;-55
2021/09/13 02:54:11;;;;;;;9.68;7.72;;;;;;;;;;2071862;28;20208;-54
2021/09/13 02:55:12;;;;;;;8.50;7.38;;;;;;;;;;2064776;28;20650;-56
2021/09/13 02:56:14;;;;;;;9.80;7.95;;;;;;;;;;2080317;28;20180;-51
2021/09/13 02:57:18;;;;;;;10.32;7.72;;;;;;;;;;2081305;28;20176;-51
2021/09/13 02:58:22;;;;;;;10.02;7.18;;;;;;;;;;2088641;28;20679;-52
2021/09/13 02:59:22;;;;;;;11.57;8.00;;;;;;;;;;2081034;28;20179;-56
2021/09/13 03:00:23;;;;;;;8.68;7.78;;;;;;;;;;2073023;28;20189;-55
2021/09/13 03:01:32;;;;;;;12.88;8.00;;;;;;;;;;2074465;28;20688;-54
2021/09/13 03:02:33;;;;;;;8.50;6.82;;;;;;;;;;2080397;28;20218;-59
2021/09/13 03:03:34;;;;;;;9.75;7.57;;;;;;;;;;2080524;28;20172;-54
2021/09/13 03:04:34;;;;;;;11.30;8.18;;;;;;;;;;2079827;28;20172;-53
2021/09/13 03:05:35;;;;;;;11.07;8.13;;;;;;;;;;2087983;28;20167;-51
2021/09/13 03:06:42;;;;;;;12.48;7.88;;;;;;;;;;2082438;28;20176;-52
2021/09/13 03:07:43;;;;;;;10.27;7.43;;;;;;;;;;2080322;28;20299;-55
2021/09/13 03:08:44;;;;;;;15.80;8.13;;;;;;;;;;2088503;28;20171;-52
2021/09/13 03:09:44;;;;;;;15.98;7.45;;;;;;;;;;2081053;28;20277;-51
2021/09/13 03:10:45;;;;;;;9.48;8.18;;;;;;;;;;2072641;28;20540;-51
2021/09/13 03:11:47;;;;;;;8.75;7.65;;;;;;;;;;2077480;28;20172;-55
2021/09/13 03:12:47;;;;;;;8.77;7.90;;;;;;;;;;2080514;28;20188;-54
2021/09/13 03:13:48;;;;;;;10.43;7.45;;;;;;;;;;2088196;28;20692;-54
2021/09/13 03:14:48;;;;;;;7.95;7.20;;;;;;;;;;2089031;28;20176;-52
2021/09/13 03:15:48;;;;;;;9.88;7.82;;;;;;;;;;2088769;28;20205;-53
2021/09/13 03:16:51;;;;;;;10.85;7.43;;;;;;;;;;2080032;28;20184;-51
2021/09/13 03:17:51;;;;;;;9.48;7.57;;;;;;;;;;2080968;28;20168;-53
2021/09/13 03:18:51;;;;;;;8.80;7.85;;;;;;;;;;2080142;28;20615;-54
2021/09/13 03:19:52;;;;;;;14.38;8.13;;;;;;;;;;2081037;28;20182;-54
2021/09/13 03:20:53;;;;;;;11.75;8.32;;;;;;;;;;2080237;28;20168;-52
2021/09/13 03:21:53;;;;;;;8.45;6.78;;;;;;;;;;2080790;28;20192;-50
2021/09/13 03:22:53;;;;;;;9.07;7.57;;;;;;;;;;2086093;28;20235;-51
2021/09/13 03:23:54;;;;;;;10.55;7.18;;;;;;;;;;2077597;28;20291;-50
2021/09/13 03:24:56;;;;;;;12.27;7.32;;;;;;;;;;2080647;28;20174;-50
2021/09/13 03:25:58;;;;;;;14.18;8.13;;;;;;;;;;2080866;28;20263;-50
2021/09/13 03:27:00;;;;;;;9.60;7.47;;;;;;;;;;2071925;28;20259;-52
2021/09/13 03:28:00;;;;;;;12.43;7.68;;;;;;;;;;2079926;28;20611;-54
2021/09/13 03:29:05;;;;;;;9.73;8.15;;;;;;;;;;2078608;28;20176;-51
2021/09/13 03:30:06;;;;;;;10.13;6.85;;;;;;;;;;2080801;28;20171;-51
2021/09/13 03:31:06;;;;;;;9.75;7.20;;;;;;;;;;2080822;28;20178;-50
2021/09/13 03:32:08;;;;;;;9.77;8.00;;;;;;;;;;2072873;28;20197;-55
2021/09/13 03:33:09;;;;;;;10.23;6.93;;;;;;;;;;2072771;28;20599;-51
2021/09/13 03:34:10;;;;;;;9.02;7.10;;;;;;;;;;2080856;28;20184;-52
2021/09/13 03:35:11;;;;;;;7.93;6.75;;;;;;;;;;2072689;28;20173;-53
2021/09/13 03:36:11;;;;;;;8.98;7.15;;;;;;;;;;2072160;28;20185;-51
2021/09/13 03:37:12;;;;;;;11.82;6.80;;;;;;;;;;2072447;28;20227;-53
2021/09/13 03:38:12;;;;;;;9.60;6.93;;;;;;;;;;2071453;28;20181;-52
2021/09/13 03:39:12;;;;;;;10.32;6.25;;;;;;;;;;2079362;28;20168;-51
2021/09/13 03:40:13;;;;;;;11.90;6.68;;;;;;;;;;2080733;28;20586;-53
2021/09/13 03:41:13;;;;;;;8.02;6.22;;;;;;;;;;2077807;28;20180;-53
2021/09/13 03:42:14;;;;;;;7.15;6.50;;;;;;;;;;2072594;28;20207;-54
2021/09/13 03:43:14;;;;;;;8.00;6.07;;;;;;;;;;2072829;28;20199;-50
2021/09/13 03:44:14;;;;;;;9.45;6.60;;;;;;;;;;2080066;28;20195;-50
2021/09/13 03:45:14;;;;;;;7.20;6.32;;;;;;;;;;2089168;28;20223;-54
2021/09/13 03:46:38;;;;;;;10.38;5.80;;;;;;;;;;2060060;28;20189;-56
2021/09/13 03:47:54;;;;;;;9.90;6.10;;;;;;;;;;2084820;28;20191;-56
2021/09/13 03:48:54;;;;;;;8.95;6.25;;;;;;;;;;2080312;28;20180;-54
2021/09/13 03:49:54;;;;;;;7.50;6.28;;;;;;;;;;2081044;28;20813;-55
2021/09/13 03:50:55;;;;;;;9.07;6.55;;;;;;;;;;2079772;28;20174;-56
2021/09/13 03:51:55;;;;;;;8.10;5.97;;;;;;;;;;2088296;28;20199;-52
2021/09/13 03:52:56;;;;;;;8.88;6.57;;;;;;;;;;2085176;28;20160;-52
2021/09/13 03:53:56;;;;;;;7.78;5.90;;;;;;;;;;2080499;28;20196;-55
2021/09/13 03:54:56;;;;;;;7.40;6.30;;;;;;;;;;2080772;28;20609;-55
2021/09/13 03:55:56;;;;;;;11.68;6.60;;;;;;;;;;2087653;28;20156;-54
2021/09/13 03:56:57;;;;;;;8.55;6.30;;;;;;;;;;2080790;28;20168;-50
2021/09/13 03:57:57;;;;;;;7.90;6.63;;;;;;;;;;2080174;28;20192;-50
2021/09/13 03:58:57;;;;;;;7.97;5.72;;;;;;;;;;2080126;28;20184;-51
2021/09/13 03:59:58;;;;;;;10.77;6.78;;;;;;;;;;2080779;28;20270;-50
2021/09/13 04:01:00;;;;;;;7.45;6.20;;;;;;;;;;2080697;28;20179;-51
2021/09/13 04:02:02;;;;;;;6.80;5.95;;;;;;;;;;2081316;28;20215;-48
2021/09/13 04:03:09;;;;;;;7.00;6.28;;;;;;;;;;2080125;28;20172;-50
2021/09/13 04:04:10;;;;;;;8.98;6.75;;;;;;;;;;2081565;28;20209;-50
2021/09/13 04:05:19;;;;;;;8.10;6.10;;;;;;;;;;2066996;28;20173;-50
2021/09/13 04:06:27;;;;;;;8.35;5.78;;;;;;;;;;2069388;28;20177;-51
2021/09/13 04:11:17;;;;;;;10.40;6.78;;;;;;;;;;2082010;28;20175;-54
2021/09/13 04:12:34;;;;;;;6.40;5.80;;;;;;;;;;2088495;28;20187;-53
2021/09/13 04:13:50;;;;;;;9.05;6.03;;;;;;;;;;2082887;28;20237;-52
2021/09/13 04:14:59;;;;;;;8.55;6.20;;;;;;;;;;2081587;28;20183;-51
2021/09/13 04:16:19;;;;;;;8.05;6.20;;;;;;;;;;2063411;28;20235;-56
2021/09/13 04:17:46;;;;;;;6.70;5.93;;;;;;;;;;2071004;28;20188;-54
2021/09/13 04:19:04;;;;;;;9.52;6.07;;;;;;;;;;2076882;28;20176;-51
2021/09/13 04:20:19;;;;;;;8.75;6.10;;;;;;;;;;2074346;28;20182;-51
2021/09/13 04:21:36;;;;;;;10.27;6.57;;;;;;;;;;2079745;28;20275;-55
2021/09/13 04:22:51;;;;;;;6.93;6.03;;;;;;;;;;2080279;28;20164;-51
2021/09/13 04:24:06;;;;;;;9.73;6.20;;;;;;;;;;2072135;28;20216;-51
2021/09/13 04:25:25;;;;;;;10.93;6.50;;;;;;;;;;2083879;28;20159;-51
2021/09/13 04:26:40;;;;;;;7.28;6.53;;;;;;;;;;2088310;28;20175;-51
2021/09/13 04:28:13;;;;;;;7.75;5.68;;;;;;;;;;2087356;28;20261;-53
2021/09/13 04:29:28;;;;;;;9.07;5.80;;;;;;;;;;2080195;28;20676;-50
2021/09/13 04:30:53;;;;;;;7.55;5.40;;;;;;;;;;2080439;28;20243;-50
2021/09/13 04:32:03;;;;;;;6.25;5.65;;;;;;;;;;2081188;28;20591;-54
2021/09/13 04:33:13;;;;;;;11.88;6.45;;;;;;;;;;2089133;28;20160;-56
2021/09/13 04:34:32;;;;;;;6.45;5.85;;;;;;;;;;2088297;28;20171;-52
2021/09/13 04:35:51;;;;;;;9.52;6.13;;;;;;;;;;2078966;28;20231;-53
2021/09/13 04:37:07;;;;;;;8.15;5.63;;;;;;;;;;2082301;28;20194;-51
2021/09/13 04:38:27;;;;;;;6.60;5.40;;;;;;;;;;2084378;28;20164;-54
2021/09/13 04:39:33;;;;;;;6.93;5.88;;;;;;;;;;2086314;28;20191;-54
2021/09/13 04:40:54;;;;;;;7.50;6.80;;;;;;;;;;2085976;28;20177;-52
2021/09/13 04:42:13;;;;;;;8.95;5.40;;;;;;;;;;2086578;28;20182;-56
2021/09/13 04:43:33;;;;;;;8.88;5.80;;;;;;;;;;2075355;28;20196;-56
2021/09/13 04:44:52;;;;;;;9.95;6.03;;;;;;;;;;2088463;28;20180;-53
2021/09/13 04:46:11;;;;;;;7.82;5.85;;;;;;;;;;2087696;28;20164;-51
2021/09/13 04:47:29;;;;;;;6.78;5.72;;;;;;;;;;2089494;28;20211;-52
2021/09/13 04:49:02;;;;;;;11.35;6.43;;;;;;;;;;2086025;28;20572;-56
2021/09/13 04:50:25;;;;;;;8.80;6.63;;;;;;;;;;2083836;28;20192;-53
2021/09/13 04:51:36;;;;;;;6.30;5.68;;;;;;;;;;2080417;28;20579;-53
2021/09/13 04:52:44;;;;;;;10.13;5.82;;;;;;;;;;2081723;28;20180;-55
2021/09/13 04:53:44;;;;;;;7.57;5.93;;;;;;;;;;2072368;28;20192;-55
2021/09/13 04:54:48;;;;;;;8.80;6.30;;;;;;;;;;2087140;23;20236;-61
2021/09/13 04:55:49;;;;;;;7.97;6.22;;;;;;;;;;2087520;28;20188;-61
2021/09/13 04:56:52;;;;;;;7.63;5.55;;;;;;;;;;2080346;28;20244;-60
2021/09/13 04:57:53;;;;;;;8.40;6.55;;;;;;;;;;2080050;28;20172;-57
2021/09/13 04:58:53;;;;;;;8.35;6.15;;;;;;;;;;2082620;28;20734;-61
2021/09/13 04:59:53;;;;;;;9.27;6.25;;;;;;;;;;2088704;28;20178;-55
2021/09/13 05:00:54;;;;;;;9.95;6.63;;;;;;;;;;2087436;28;20188;-62
2021/09/13 05:01:54;;;;;;;9.18;6.40;;;;;;;;;;2097101;28;20242;-61
2021/09/13 05:02:56;;;;;;;7.97;6.60;;;;;;;;;;2088671;28;20171;-61
2021/09/13 05:03:57;;;;;;;8.27;6.47;;;;;;;;;;2086548;28;20688;-61
2021/09/13 05:04:57;;;;;;;8.85;7.20;;;;;;;;;;2086011;28;20183;-61
2021/09/13 05:05:57;;;;;;;8.93;6.65;;;;;;;;;;2089376;28;20225;-60
2021/09/13 05:06:58;;;;;;;8.82;5.88;;;;;;;;;;2090358;28;20679;-61
2021/09/13 05:07:58;;;;;;;8.77;6.13;;;;;;;;;;2089755;28;20215;-61
2021/09/13 05:09:00;;;;;;;8.75;5.72;;;;;;;;;;2082015;28;20189;-61
2021/09/13 05:10:04;;;;;;;7.15;6.45;;;;;;;;;;2082427;28;20203;-60
2021/09/13 05:11:05;;;;;;;6.50;5.53;;;;;;;;;;2081085;28;20187;-61
2021/09/13 05:12:06;;;;;;;7.82;5.82;;;;;;;;;;2077987;28;20255;-60
2021/09/13 05:13:07;;;;;;;10.95;5.78;;;;;;;;;;2081727;28;20172;-60
2021/09/13 05:14:07;;;;;;;8.52;5.63;;;;;;;;;;2089807;28;20164;-60
2021/09/13 05:15:08;;;;;;;6.20;5.25;;;;;;;;;;2090158;28;20198;-61
2021/09/13 05:16:08;;;;;;;7.55;5.15;;;;;;;;;;2090191;28;20203;-61
2021/09/13 05:17:13;;;;;;;5.82;4.93;;;;;;;;;;2082447;28;20729;-60
2021/09/13 05:18:13;;;;;;;5.60;5.13;;;;;;;;;;2081545;28;20255;-61
2021/09/13 05:19:13;;;;;;;5.57;5.05;;;;;;;;;;2081891;28;20176;-61
2021/09/13 05:20:14;;;;;;;8.00;5.40;;;;;;;;;;2081991;28;20161;-61
2021/09/13 05:21:15;;;;;;;9.95;5.05;;;;;;;;;;2090400;28;20250;-59
2021/09/13 05:22:17;;;;;;;7.20;5.25;;;;;;;;;;2086295;28;20226;-60
2021/09/13 05:23:17;;;;;;;6.75;5.53;;;;;;;;;;2073787;28;20666;-61
2021/09/13 05:24:17;;;;;;;7.93;5.43;;;;;;;;;;2075416;28;20705;-60
2021/09/13 05:25:22;;;;;;;6.82;5.47;;;;;;;;;;2088417;28;20167;-59
2021/09/13 05:26:22;;;;;;;6.93;5.57;;;;;;;;;;2078941;28;20678;-60
2021/09/13 05:27:22;;;;;;;5.97;5.35;;;;;;;;;;2089017;28;20524;-61
2021/09/13 05:28:23;;;;;;;9.02;5.72;;;;;;;;;;2086029;28;20234;-59
2021/09/13 05:29:23;;;;;;;8.07;6.13;;;;;;;;;;2090940;28;20776;-59
2021/09/13 05:30:23;;;;;;;6.15;5.55;;;;;;;;;;2077040;28;20173;-56
2021/09/13 05:31:24;;;;;;;10.93;5.88;;;;;;;;;;2081778;28;20180;-60
2021/09/13 05:32:25;;;;;;;7.35;5.97;;;;;;;;;;2080247;28;20168;-61
2021/09/13 05:33:26;;;;;;;7.38;6.53;;;;;;;;;;2089958;28;20175;-59
2021/09/13 05:34:26;;;;;;;8.80;6.07;;;;;;;;;;2081001;28;20164;-56
2021/09/13 05:35:27;;;;;;;7.80;6.22;;;;;;;;;;2073825;28;20252;-60
2021/09/13 05:36:27;;;;;;;8.27;6.00;;;;;;;;;;2089271;28;20547;-60
2021/09/13 05:37:28;;;;;;;6.80;6.10;;;;;;;;;;2089799;28;20766;-59
2021/09/13 05:38:28;;;;;;;8.30;5.93;;;;;;;;;;2087908;28;20168;-60
2021/09/13 05:39:30;;;;;;;7.57;6.30;;;;;;;;;;2081101;28;20612;-60
2021/09/13 05:40:33;;;;;;;9.00;6.82;;;;;;;;;;2081472;28;20169;-60
2021/09/13 05:41:33;;;;;;;14.13;8.38;;;;;;;;;;2089705;28;20168;-60
2021/09/13 05:42:34;;;;;;;17.20;8.68;;;;;;;;;;2081661;28;20175;-59
2021/09/13 05:43:34;;;;;;;15.68;8.65;;;;;;;;;;2081844;28;20183;-61
2021/09/13 05:44:34;;;;;;;19.02;9.10;;;;;;;;;;2090599;28;20219;-60
2021/09/13 05:45:36;;;;;;;30.90;10.68;;;;;;;;;;2089090;28;20183;-60
2021/09/13 05:46:36;;;;;;;15.55;9.13;;;;;;;;;;2080048;28;20646;-57
2021/09/13 05:47:37;;;;;;;15.77;8.52;;;;;;;;;;2081075;28;20215;-61
2021/09/13 05:48:38;;;;;;;16.27;9.02;;;;;;;;;;2080334;28;20168;-61
2021/09/13 05:49:39;;;;;;;16.73;8.60;;;;;;;;;;2074540;28;20204;-59
2021/09/13 05:50:47;;;;;;;13.15;7.47;;;;;;;;;;2081986;28;20252;-62
2021/09/13 05:51:53;;;;;;;11.95;8.23;;;;;;;;;;2081845;28;20664;-61
2021/09/13 05:53:08;;;;;;;10.05;7.50;;;;;;;;;;2075092;28;20728;-61
2021/09/13 05:54:09;;;;;;;10.50;7.70;;;;;;;;;;2080791;28;20175;-59
2021/09/13 05:55:11;;;;;;;8.25;7.18;;;;;;;;;;2076418;28;20648;-58
2021/09/13 05:56:17;;;;;;;13.63;8.02;;;;;;;;;;2071997;28;20185;-61
2021/09/13 05:57:17;;;;;;;7.72;6.78;;;;;;;;;;2078970;28;20164;-57
2021/09/13 05:58:20;;;;;;;10.60;7.10;;;;;;;;;;2087459;28;20175;-57
2021/09/13 05:59:24;;;;;;;11.20;7.78;;;;;;;;;;2080285;28;20165;-60
2021/09/13 06:00:33;;;;;;;9.25;6.63;;;;;;;;;;2073942;28;20187;-55
2021/09/13 06:01:34;;;;;;;8.13;5.95;;;;;;;;;;2081145;28;20168;-59
2021/09/13 06:02:37;;;;;;;9.75;6.60;;;;;;;;;;2084069;28;20254;-60
2021/09/13 06:03:54;;;;;;;10.23;7.18;;;;;;;;;;2079830;28;20233;-60
2021/09/13 06:04:55;;;;;;;11.10;7.03;;;;;;;;;;2080701;28;20278;-59
2021/09/13 06:05:55;;;;;;;10.63;6.90;;;;;;;;;;2076268;28;20242;-60
2021/09/13 06:06:55;;;;;;;8.32;6.70;;;;;;;;;;2077628;28;20176;-58
2021/09/13 06:07:57;;;;;;;8.73;6.38;;;;;;;;;;2080072;28;20238;-59
2021/09/13 06:08:58;;;;;;;10.68;6.63;;;;;;;;;;2086524;28;20282;-59
2021/09/13 06:09:59;;;;;;;9.88;7.25;;;;;;;;;;2079178;28;20173;-59
2021/09/13 06:10:59;;;;;;;12.60;6.93;;;;;;;;;;2080693;28;20595;-59
2021/09/13 06:12:00;;;;;;;11.00;7.47;;;;;;;;;;2079430;28;20195;-62
2021/09/13 06:13:11;;;;;;;8.63;6.60;;;;;;;;;;2073704;28;20168;-62
2021/09/13 06:14:12;;;;;;;10.55;6.82;;;;;;;;;;2079910;28;20259;-62
2021/09/13 06:15:12;;;;;;;12.98;6.97;;;;;;;;;;2085528;28;20156;-60
2021/09/13 06:16:16;;;;;;;10.40;8.30;;;;;;;;;;2080397;28;20172;-58
2021/09/13 06:17:21;;;;;;;9.38;7.53;;;;;;;;;;2073479;28;20176;-59
2021/09/13 06:18:21;;;;;;;8.85;7.38;;;;;;;;;;2078616;28;20255;-58
2021/09/13 06:19:22;;;;;;;9.85;8.25;;;;;;;;;;2079729;28;20593;-59
2021/09/13 06:20:23;;;;;;;14.68;10.10;;;;;;;;;;2080597;28;20168;-59